sensor_id;sensor_type;location;lat;lon;timestamp;temperature;humidity
3816;DHT22;1923;48.154;11.536;2023-04-19T00:00:05;10.00;99.90
3816;DHT22;1923;48.154;11.536;2023-04-19T00:02:35;10.00;99.90
3816;DHT22;1923;48.154;11.536;2023-04-19T00:05:04;10.00;99.90
3816;DHT22;1923;48.154;11.536;2023-04-19T00:07:33;10.10;99.90
3816;DHT22;1923;48.154;11.536;2023-04-19T00:10:01;10.20;99.90
3816;DHT22;1923;48.154;11.536;2023-04-19T00:12:30;10.30;99.90
3816;DHT22;1923;48.154;11.536;2023-04-19T00:14:58;10.20;99.90
3816;DHT22;1923;48.154;11.536;2023-04-19T00:17:26;10.30;99.90
3816;DHT22;1923;48.154;11.536;2023-04-19T00:19:56;10.20;99.90
3816;DHT22;1923;48.154;11.536;2023-04-19T00:22:25;10.20;99.90
3816;DHT22;1923;48.154;11.536;2023-04-19T00:24:53;10.10;99.90
3816;DHT22;1923;48.154;11.536;2023-04-19T00:27:21;10.00;99.90
3816;DHT22;1923;48.154;11.536;2023-04-19T00:29:49;10.00;99.90
3816;DHT22;1923;48.154;11.536;2023-04-19T00:32:17;9.90;99.90
3816;DHT22;1923;48.154;11.536;2023-04-19T00:34:45;10.00;99.90
3816;DHT22;1923;48.154;11.536;2023-04-19T00:37:14;9.90;99.90
3816;DHT22;1923;48.154;11.536;2023-04-19T00:39:42;10.00;99.90
3816;DHT22;1923;48.154;11.536;2023-04-19T00:42:10;10.00;99.90
3816;DHT22;1923;48.154;11.536;2023-04-19T00:44:38;9.90;99.90
3816;DHT22;1923;48.154;11.536;2023-04-19T00:47:07;9.90;99.90
3816;DHT22;1923;48.154;11.536;2023-04-19T00:49:35;9.90;99.90
3816;DHT22;1923;48.154;11.536;2023-04-19T00:52:04;9.80;99.90
3816;DHT22;1923;48.154;11.536;2023-04-19T00:54:33;9.70;99.90
3816;DHT22;1923;48.154;11.536;2023-04-19T00:57:02;9.70;99.90
3816;DHT22;1923;48.154;11.536;2023-04-19T00:59:30;9.70;99.90
3816;DHT22;1923;48.154;11.536;2023-04-19T01:01:58;9.70;99.90
3816;DHT22;1923;48.154;11.536;2023-04-19T01:04:26;9.70;99.90
3816;DHT22;1923;48.154;11.536;2023-04-19T01:06:55;9.80;99.90
3816;DHT22;1923;48.154;11.536;2023-04-19T01:09:23;9.80;99.90
3816;DHT22;1923;48.154;11.536;2023-04-19T01:11:52;9.80;99.90
3816;DHT22;1923;48.154;11.536;2023-04-19T01:14:20;9.80;99.90
3816;DHT22;1923;48.154;11.536;2023-04-19T01:16:48;9.70;99.90
3816;DHT22;1923;48.154;11.536;2023-04-19T01:19:16;9.60;99.90
3816;DHT22;1923;48.154;11.536;2023-04-19T01:21:44;9.60;99.90
3816;DHT22;1923;48.154;11.536;2023-04-19T01:24:13;9.70;99.90
3816;DHT22;1923;48.154;11.536;2023-04-19T01:26:42;9.80;99.90
3816;DHT22;1923;48.154;11.536;2023-04-19T01:29:10;9.80;99.90
3816;DHT22;1923;48.154;11.536;2023-04-19T01:31:38;9.70;99.90
3816;DHT22;1923;48.154;11.536;2023-04-19T01:34:06;9.80;99.90
3816;DHT22;1923;48.154;11.536;2023-04-19T01:36:34;9.90;99.90
3816;DHT22;1923;48.154;11.536;2023-04-19T01:39:02;9.90;99.90
3816;DHT22;1923;48.154;11.536;2023-04-19T01:41:31;10.00;99.90
3816;DHT22;1923;48.154;11.536;2023-04-19T01:43:59;9.90;99.90
3816;DHT22;1923;48.154;11.536;2023-04-19T01:46:27;9.90;99.90
3816;DHT22;1923;48.154;11.536;2023-04-19T01:48:55;9.90;99.90
3816;DHT22;1923;48.154;11.536;2023-04-19T01:51:23;9.80;99.90
3816;DHT22;1923;48.154;11.536;2023-04-19T01:53:51;9.80;99.90
3816;DHT22;1923;48.154;11.536;2023-04-19T01:56:20;9.80;99.90
3816;DHT22;1923;48.154;11.536;2023-04-19T01:58:49;9.80;99.90
3816;DHT22;1923;48.154;11.536;2023-04-19T02:01:17;9.80;99.90
3816;DHT22;1923;48.154;11.536;2023-04-19T02:03:46;9.90;99.90
3816;DHT22;1923;48.154;11.536;2023-04-19T02:06:14;9.80;99.90
3816;DHT22;1923;48.154;11.536;2023-04-19T02:08:42;9.80;99.90
3816;DHT22;1923;48.154;11.536;2023-04-19T02:11:11;9.90;99.90
3816;DHT22;1923;48.154;11.536;2023-04-19T02:13:40;9.90;99.90
3816;DHT22;1923;48.154;11.536;2023-04-19T02:16:10;9.90;99.90
3816;DHT22;1923;48.154;11.536;2023-04-19T02:18:38;9.80;99.90
3816;DHT22;1923;48.154;11.536;2023-04-19T02:21:08;9.70;99.90
3816;DHT22;1923;48.154;11.536;2023-04-19T02:23:36;9.70;99.90
3816;DHT22;1923;48.154;11.536;2023-04-19T02:26:04;9.60;99.90
3816;DHT22;1923;48.154;11.536;2023-04-19T02:28:32;9.60;99.90
3816;DHT22;1923;48.154;11.536;2023-04-19T02:31:04;9.50;99.90
3816;DHT22;1923;48.154;11.536;2023-04-19T02:33:33;9.40;99.90
3816;DHT22;1923;48.154;11.536;2023-04-19T02:36:02;9.50;99.90
3816;DHT22;1923;48.154;11.536;2023-04-19T02:38:30;9.40;99.90
3816;DHT22;1923;48.154;11.536;2023-04-19T02:40:58;9.40;99.90
3816;DHT22;1923;48.154;11.536;2023-04-19T02:43:27;9.50;99.90
3816;DHT22;1923;48.154;11.536;2023-04-19T02:45:55;9.60;99.90
3816;DHT22;1923;48.154;11.536;2023-04-19T02:48:23;9.50;99.90
3816;DHT22;1923;48.154;11.536;2023-04-19T02:50:52;9.60;99.90
3816;DHT22;1923;48.154;11.536;2023-04-19T02:53:20;9.60;99.90
3816;DHT22;1923;48.154;11.536;2023-04-19T02:55:48;9.60;99.90
3816;DHT22;1923;48.154;11.536;2023-04-19T02:58:16;9.50;99.90
3816;DHT22;1923;48.154;11.536;2023-04-19T03:00:44;9.50;99.90
3816;DHT22;1923;48.154;11.536;2023-04-19T03:03:12;9.30;99.90
3816;DHT22;1923;48.154;11.536;2023-04-19T03:05:40;9.40;99.90
3816;DHT22;1923;48.154;11.536;2023-04-19T03:08:10;9.40;99.90
3816;DHT22;1923;48.154;11.536;2023-04-19T03:10:38;9.40;99.90
3816;DHT22;1923;48.154;11.536;2023-04-19T03:13:06;9.60;99.90
3816;DHT22;1923;48.154;11.536;2023-04-19T03:15:35;9.40;99.90
3816;DHT22;1923;48.154;11.536;2023-04-19T03:18:03;9.40;99.90
3816;DHT22;1923;48.154;11.536;2023-04-19T03:20:31;9.60;99.90
3816;DHT22;1923;48.154;11.536;2023-04-19T03:23:00;9.60;99.90
3816;DHT22;1923;48.154;11.536;2023-04-19T03:25:29;9.50;99.90
3816;DHT22;1923;48.154;11.536;2023-04-19T03:27:57;9.60;99.90
3816;DHT22;1923;48.154;11.536;2023-04-19T03:30:25;9.50;99.90
3816;DHT22;1923;48.154;11.536;2023-04-19T03:32:53;9.60;99.90
3816;DHT22;1923;48.154;11.536;2023-04-19T03:35:22;9.60;99.90
3816;DHT22;1923;48.154;11.536;2023-04-19T03:37:51;9.50;99.90
3816;DHT22;1923;48.154;11.536;2023-04-19T03:40:20;9.50;99.90
3816;DHT22;1923;48.154;11.536;2023-04-19T03:42:49;9.60;99.90
3816;DHT22;1923;48.154;11.536;2023-04-19T03:45:17;9.50;99.90
3816;DHT22;1923;48.154;11.536;2023-04-19T03:47:45;9.60;99.90
3816;DHT22;1923;48.154;11.536;2023-04-19T03:50:14;9.60;99.90
3816;DHT22;1923;48.154;11.536;2023-04-19T03:52:42;9.70;99.90
3816;DHT22;1923;48.154;11.536;2023-04-19T03:55:10;9.70;99.90
3816;DHT22;1923;48.154;11.536;2023-04-19T03:57:39;9.60;99.90
3816;DHT22;1923;48.154;11.536;2023-04-19T04:00:10;9.60;99.90
3816;DHT22;1923;48.154;11.536;2023-04-19T04:02:38;9.50;99.90
3816;DHT22;1923;48.154;11.536;2023-04-19T04:05:07;9.60;99.90
3816;DHT22;1923;48.154;11.536;2023-04-19T04:07:35;9.70;99.90
3816;DHT22;1923;48.154;11.536;2023-04-19T04:10:04;9.60;99.90
3816;DHT22;1923;48.154;11.536;2023-04-19T04:12:32;9.60;99.90
3816;DHT22;1923;48.154;11.536;2023-04-19T04:15:00;9.70;99.90
3816;DHT22;1923;48.154;11.536;2023-04-19T04:17:30;9.60;99.90
3816;DHT22;1923;48.154;11.536;2023-04-19T04:19:58;9.70;99.90
3816;DHT22;1923;48.154;11.536;2023-04-19T04:22:27;9.70;99.90
3816;DHT22;1923;48.154;11.536;2023-04-19T04:24:54;9.70;99.90
3816;DHT22;1923;48.154;11.536;2023-04-19T04:27:23;9.70;99.90
3816;DHT22;1923;48.154;11.536;2023-04-19T04:29:52;9.70;99.90
3816;DHT22;1923;48.154;11.536;2023-04-19T04:32:20;9.70;99.90
3816;DHT22;1923;48.154;11.536;2023-04-19T04:34:50;9.60;99.90
3816;DHT22;1923;48.154;11.536;2023-04-19T04:37:18;9.60;99.90
3816;DHT22;1923;48.154;11.536;2023-04-19T04:39:46;9.70;99.90
3816;DHT22;1923;48.154;11.536;2023-04-19T04:42:14;9.70;99.90
3816;DHT22;1923;48.154;11.536;2023-04-19T04:44:43;9.60;99.90
3816;DHT22;1923;48.154;11.536;2023-04-19T04:47:13;9.60;99.90
3816;DHT22;1923;48.154;11.536;2023-04-19T04:49:41;9.50;99.90
3816;DHT22;1923;48.154;11.536;2023-04-19T04:52:10;9.60;99.90
3816;DHT22;1923;48.154;11.536;2023-04-19T04:54:38;9.40;99.90
3816;DHT22;1923;48.154;11.536;2023-04-19T04:57:07;9.40;99.90
3816;DHT22;1923;48.154;11.536;2023-04-19T04:59:35;9.30;99.90
3816;DHT22;1923;48.154;11.536;2023-04-19T05:02:03;9.40;99.90
3816;DHT22;1923;48.154;11.536;2023-04-19T05:04:31;9.40;99.90
3816;DHT22;1923;48.154;11.536;2023-04-19T05:06:59;9.50;99.90
3816;DHT22;1923;48.154;11.536;2023-04-19T05:09:29;9.60;99.90
3816;DHT22;1923;48.154;11.536;2023-04-19T05:11:57;9.50;99.90
3816;DHT22;1923;48.154;11.536;2023-04-19T05:14:25;9.70;99.90
3816;DHT22;1923;48.154;11.536;2023-04-19T05:16:53;9.60;99.90
3816;DHT22;1923;48.154;11.536;2023-04-19T05:19:21;9.60;99.90
3816;DHT22;1923;48.154;11.536;2023-04-19T05:21:49;9.60;99.90
3816;DHT22;1923;48.154;11.536;2023-04-19T05:24:17;9.60;99.90
3816;DHT22;1923;48.154;11.536;2023-04-19T05:26:46;9.60;99.90
3816;DHT22;1923;48.154;11.536;2023-04-19T05:29:15;9.60;99.90
3816;DHT22;1923;48.154;11.536;2023-04-19T05:31:43;9.70;99.90
3816;DHT22;1923;48.154;11.536;2023-04-19T05:34:12;9.80;99.90
3816;DHT22;1923;48.154;11.536;2023-04-19T05:36:40;9.80;99.90
3816;DHT22;1923;48.154;11.536;2023-04-19T05:39:08;9.90;99.90
3816;DHT22;1923;48.154;11.536;2023-04-19T05:41:36;9.70;99.90
3816;DHT22;1923;48.154;11.536;2023-04-19T05:44:06;9.70;99.90
3816;DHT22;1923;48.154;11.536;2023-04-19T05:46:33;9.70;99.90
3816;DHT22;1923;48.154;11.536;2023-04-19T05:49:02;9.90;99.90
3816;DHT22;1923;48.154;11.536;2023-04-19T05:51:30;9.90;99.90
3816;DHT22;1923;48.154;11.536;2023-04-19T05:53:59;9.90;99.90
3816;DHT22;1923;48.154;11.536;2023-04-19T05:56:27;9.90;99.90
3816;DHT22;1923;48.154;11.536;2023-04-19T05:58:55;10.00;99.90
3816;DHT22;1923;48.154;11.536;2023-04-19T06:01:25;10.00;99.90
3816;DHT22;1923;48.154;11.536;2023-04-19T06:03:53;9.90;99.90
3816;DHT22;1923;48.154;11.536;2023-04-19T06:06:22;9.90;99.90
3816;DHT22;1923;48.154;11.536;2023-04-19T06:08:50;10.00;99.90
3816;DHT22;1923;48.154;11.536;2023-04-19T06:11:20;10.00;99.90
3816;DHT22;1923;48.154;11.536;2023-04-19T06:14:00;9.90;99.90
3816;DHT22;1923;48.154;11.536;2023-04-19T06:16:29;9.90;99.90
3816;DHT22;1923;48.154;11.536;2023-04-19T06:18:58;9.90;99.90
3816;DHT22;1923;48.154;11.536;2023-04-19T06:21:29;9.90;99.90
3816;DHT22;1923;48.154;11.536;2023-04-19T06:23:57;9.90;99.90
3816;DHT22;1923;48.154;11.536;2023-04-19T06:26:25;10.00;99.90
3816;DHT22;1923;48.154;11.536;2023-04-19T06:28:53;9.90;99.90
3816;DHT22;1923;48.154;11.536;2023-04-19T06:31:21;10.00;99.90
3816;DHT22;1923;48.154;11.536;2023-04-19T06:33:51;9.90;99.90
3816;DHT22;1923;48.154;11.536;2023-04-19T06:36:19;10.00;99.90
3816;DHT22;1923;48.154;11.536;2023-04-19T06:38:47;10.00;99.90
3816;DHT22;1923;48.154;11.536;2023-04-19T06:41:16;10.00;99.90
3816;DHT22;1923;48.154;11.536;2023-04-19T06:43:44;9.90;99.90
3816;DHT22;1923;48.154;11.536;2023-04-19T06:46:12;10.00;99.90
3816;DHT22;1923;48.154;11.536;2023-04-19T06:48:41;10.00;99.90
3816;DHT22;1923;48.154;11.536;2023-04-19T06:51:11;9.80;99.90
3816;DHT22;1923;48.154;11.536;2023-04-19T06:53:38;9.90;99.90
3816;DHT22;1923;48.154;11.536;2023-04-19T06:56:07;10.00;99.90
3816;DHT22;1923;48.154;11.536;2023-04-19T06:58:35;10.00;99.90
3816;DHT22;1923;48.154;11.536;2023-04-19T07:01:04;10.10;99.90
3816;DHT22;1923;48.154;11.536;2023-04-19T07:03:32;10.00;99.90
3816;DHT22;1923;48.154;11.536;2023-04-19T07:06:00;10.20;99.90
3816;DHT22;1923;48.154;11.536;2023-04-19T07:08:30;10.20;99.90
3816;DHT22;1923;48.154;11.536;2023-04-19T07:11:15;10.20;99.90
3816;DHT22;1923;48.154;11.536;2023-04-19T07:13:44;10.30;99.90
3816;DHT22;1923;48.154;11.536;2023-04-19T07:16:12;10.30;99.90
3816;DHT22;1923;48.154;11.536;2023-04-19T07:18:40;10.40;99.90
3816;DHT22;1923;48.154;11.536;2023-04-19T07:21:09;10.30;99.90
3816;DHT22;1923;48.154;11.536;2023-04-19T07:23:39;10.40;99.90
3816;DHT22;1923;48.154;11.536;2023-04-19T07:26:07;10.40;99.90
3816;DHT22;1923;48.154;11.536;2023-04-19T07:28:35;10.40;99.90
3816;DHT22;1923;48.154;11.536;2023-04-19T07:31:03;10.40;99.90
3816;DHT22;1923;48.154;11.536;2023-04-19T07:33:31;10.50;99.90
3816;DHT22;1923;48.154;11.536;2023-04-19T07:36:00;10.40;99.90
3816;DHT22;1923;48.154;11.536;2023-04-19T07:38:28;10.60;99.90
3816;DHT22;1923;48.154;11.536;2023-04-19T07:40:57;10.90;99.90
3816;DHT22;1923;48.154;11.536;2023-04-19T07:43:25;11.00;99.90
3816;DHT22;1923;48.154;11.536;2023-04-19T07:45:53;11.30;99.90
3816;DHT22;1923;48.154;11.536;2023-04-19T07:48:21;11.50;99.90
3816;DHT22;1923;48.154;11.536;2023-04-19T07:50:49;11.80;99.90
3816;DHT22;1923;48.154;11.536;2023-04-19T07:53:18;12.20;99.90
3816;DHT22;1923;48.154;11.536;2023-04-19T07:55:46;12.60;99.90
3816;DHT22;1923;48.154;11.536;2023-04-19T07:58:15;12.80;99.90
3816;DHT22;1923;48.154;11.536;2023-04-19T08:00:44;12.90;99.90
3816;DHT22;1923;48.154;11.536;2023-04-19T08:03:12;13.00;99.90
3816;DHT22;1923;48.154;11.536;2023-04-19T08:05:40;13.10;99.90
3816;DHT22;1923;48.154;11.536;2023-04-19T08:08:09;13.10;99.90
3816;DHT22;1923;48.154;11.536;2023-04-19T08:10:37;13.00;99.90
3816;DHT22;1923;48.154;11.536;2023-04-19T08:13:05;12.90;99.90
3816;DHT22;1923;48.154;11.536;2023-04-19T08:15:34;12.80;99.90
3816;DHT22;1923;48.154;11.536;2023-04-19T08:18:22;12.90;99.90
3816;DHT22;1923;48.154;11.536;2023-04-19T08:20:51;12.90;99.90
3816;DHT22;1923;48.154;11.536;2023-04-19T08:23:19;12.70;99.90
3816;DHT22;1923;48.154;11.536;2023-04-19T08:25:57;12.80;99.90
3816;DHT22;1923;48.154;11.536;2023-04-19T08:28:25;12.80;99.90
3816;DHT22;1923;48.154;11.536;2023-04-19T08:30:58;12.80;99.90
3816;DHT22;1923;48.154;11.536;2023-04-19T08:33:28;12.90;99.90
3816;DHT22;1923;48.154;11.536;2023-04-19T08:35:56;13.10;99.90
3816;DHT22;1923;48.154;11.536;2023-04-19T08:38:24;13.20;99.90
3816;DHT22;1923;48.154;11.536;2023-04-19T08:40:53;13.40;99.90
3816;DHT22;1923;48.154;11.536;2023-04-19T08:43:24;13.60;99.90
3816;DHT22;1923;48.154;11.536;2023-04-19T08:45:56;13.60;99.90
3816;DHT22;1923;48.154;11.536;2023-04-19T08:48:26;13.80;99.90
3816;DHT22;1923;48.154;11.536;2023-04-19T08:50:57;14.00;99.90
3816;DHT22;1923;48.154;11.536;2023-04-19T08:53:32;13.90;99.90
3816;DHT22;1923;48.154;11.536;2023-04-19T08:56:02;14.00;99.90
3816;DHT22;1923;48.154;11.536;2023-04-19T08:58:43;13.90;99.90
3816;DHT22;1923;48.154;11.536;2023-04-19T09:01:15;13.90;99.90
3816;DHT22;1923;48.154;11.536;2023-04-19T09:03:48;13.80;99.90
3816;DHT22;1923;48.154;11.536;2023-04-19T09:06:34;13.80;99.90
3816;DHT22;1923;48.154;11.536;2023-04-19T09:09:18;13.60;99.90
3816;DHT22;1923;48.154;11.536;2023-04-19T09:11:50;13.60;99.90
3816;DHT22;1923;48.154;11.536;2023-04-19T09:14:19;13.70;99.90
3816;DHT22;1923;48.154;11.536;2023-04-19T09:16:49;13.80;99.90
3816;DHT22;1923;48.154;11.536;2023-04-19T09:19:18;13.90;99.90
3816;DHT22;1923;48.154;11.536;2023-04-19T09:21:51;14.10;99.90
3816;DHT22;1923;48.154;11.536;2023-04-19T09:24:39;14.30;99.90
3816;DHT22;1923;48.154;11.536;2023-04-19T09:27:10;14.20;99.90
3816;DHT22;1923;48.154;11.536;2023-04-19T09:29:38;14.00;99.90
3816;DHT22;1923;48.154;11.536;2023-04-19T09:32:07;13.80;99.90
3816;DHT22;1923;48.154;11.536;2023-04-19T09:34:50;13.90;99.90
3816;DHT22;1923;48.154;11.536;2023-04-19T09:37:18;13.90;99.90
3816;DHT22;1923;48.154;11.536;2023-04-19T09:39:53;14.00;99.90
3816;DHT22;1923;48.154;11.536;2023-04-19T09:42:21;14.40;99.90
3816;DHT22;1923;48.154;11.536;2023-04-19T09:45:10;14.70;99.90
3816;DHT22;1923;48.154;11.536;2023-04-19T09:48:05;14.80;99.90
3816;DHT22;1923;48.154;11.536;2023-04-19T09:50:34;15.10;99.90
3816;DHT22;1923;48.154;11.536;2023-04-19T09:53:22;15.30;99.90
3816;DHT22;1923;48.154;11.536;2023-04-19T09:55:51;15.70;99.90
3816;DHT22;1923;48.154;11.536;2023-04-19T09:58:28;16.10;99.90
3816;DHT22;1923;48.154;11.536;2023-04-19T10:00:59;16.20;99.90
3816;DHT22;1923;48.154;11.536;2023-04-19T10:03:43;16.30;99.90
3816;DHT22;1923;48.154;11.536;2023-04-19T10:06:14;16.40;99.90
3816;DHT22;1923;48.154;11.536;2023-04-19T10:09:03;16.50;99.90
3816;DHT22;1923;48.154;11.536;2023-04-19T10:11:33;16.60;99.90
3816;DHT22;1923;48.154;11.536;2023-04-19T10:14:05;16.60;99.90
3816;DHT22;1923;48.154;11.536;2023-04-19T10:16:35;16.60;99.90
3816;DHT22;1923;48.154;11.536;2023-04-19T10:19:07;16.50;99.90
3816;DHT22;1923;48.154;11.536;2023-04-19T10:21:36;16.70;99.90
3816;DHT22;1923;48.154;11.536;2023-04-19T10:24:06;17.10;99.90
3816;DHT22;1923;48.154;11.536;2023-04-19T10:27:04;17.30;99.90
3816;DHT22;1923;48.154;11.536;2023-04-19T10:29:54;17.20;99.90
3816;DHT22;1923;48.154;11.536;2023-04-19T10:32:23;16.90;99.90
3816;DHT22;1923;48.154;11.536;2023-04-19T10:34:56;16.60;99.90
3816;DHT22;1923;48.154;11.536;2023-04-19T10:37:27;16.30;99.90
3816;DHT22;1923;48.154;11.536;2023-04-19T10:39:55;15.60;99.90
3816;DHT22;1923;48.154;11.536;2023-04-19T10:42:23;15.00;99.90
3816;DHT22;1923;48.154;11.536;2023-04-19T10:48:02;14.10;99.90
3816;DHT22;1923;48.154;11.536;2023-04-19T10:50:56;14.00;99.90
3816;DHT22;1923;48.154;11.536;2023-04-19T10:53:50;13.70;99.90
3816;DHT22;1923;48.154;11.536;2023-04-19T10:56:20;13.40;99.90
3816;DHT22;1923;48.154;11.536;2023-04-19T10:59:14;13.40;99.90
3816;DHT22;1923;48.154;11.536;2023-04-19T11:01:53;13.30;99.90
3816;DHT22;1923;48.154;11.536;2023-04-19T11:04:56;13.30;99.90
3816;DHT22;1923;48.154;11.536;2023-04-19T11:07:14;13.20;99.90
3816;DHT22;1923;48.154;11.536;2023-04-19T11:09:44;13.20;99.90
3816;DHT22;1923;48.154;11.536;2023-04-19T11:12:14;13.20;99.90
3816;DHT22;1923;48.154;11.536;2023-04-19T11:14:43;13.10;99.90
3816;DHT22;1923;48.154;11.536;2023-04-19T11:17:16;13.20;99.90
3816;DHT22;1923;48.154;11.536;2023-04-19T11:19:51;13.40;99.90
3816;DHT22;1923;48.154;11.536;2023-04-19T11:22:28;13.40;99.90
3816;DHT22;1923;48.154;11.536;2023-04-19T11:25:04;13.40;99.90
3816;DHT22;1923;48.154;11.536;2023-04-19T11:27:32;13.20;99.90
3816;DHT22;1923;48.154;11.536;2023-04-19T11:30:08;13.10;99.90
3816;DHT22;1923;48.154;11.536;2023-04-19T11:32:43;13.10;99.90
3816;DHT22;1923;48.154;11.536;2023-04-19T11:35:12;13.00;99.90
3816;DHT22;1923;48.154;11.536;2023-04-19T11:37:41;12.90;99.90
3816;DHT22;1923;48.154;11.536;2023-04-19T11:40:14;12.80;99.90
3816;DHT22;1923;48.154;11.536;2023-04-19T11:42:42;12.90;99.90
3816;DHT22;1923;48.154;11.536;2023-04-19T11:45:12;12.70;99.90
3816;DHT22;1923;48.154;11.536;2023-04-19T11:47:58;12.70;99.90
3816;DHT22;1923;48.154;11.536;2023-04-19T11:50:32;12.50;99.90
3816;DHT22;1923;48.154;11.536;2023-04-19T11:53:10;12.40;99.90
3816;DHT22;1923;48.154;11.536;2023-04-19T11:55:40;12.20;99.90
3816;DHT22;1923;48.154;11.536;2023-04-19T11:58:09;12.10;99.90
3816;DHT22;1923;48.154;11.536;2023-04-19T12:00:49;11.90;99.90
3816;DHT22;1923;48.154;11.536;2023-04-19T12:03:20;11.70;99.90
3816;DHT22;1923;48.154;11.536;2023-04-19T12:05:53;11.50;99.90
3816;DHT22;1923;48.154;11.536;2023-04-19T12:08:34;11.60;99.90
3816;DHT22;1923;48.154;11.536;2023-04-19T12:11:03;11.50;99.90
3816;DHT22;1923;48.154;11.536;2023-04-19T12:13:33;11.50;99.90
3816;DHT22;1923;48.154;11.536;2023-04-19T12:16:02;11.40;99.90
3816;DHT22;1923;48.154;11.536;2023-04-19T12:18:44;11.50;99.90
3816;DHT22;1923;48.154;11.536;2023-04-19T12:21:25;11.40;99.90
3816;DHT22;1923;48.154;11.536;2023-04-19T12:23:55;11.30;99.90
3816;DHT22;1923;48.154;11.536;2023-04-19T12:26:25;11.30;99.90
3816;DHT22;1923;48.154;11.536;2023-04-19T12:28:54;11.30;99.90
3816;DHT22;1923;48.154;11.536;2023-04-19T12:31:22;11.30;99.90
3816;DHT22;1923;48.154;11.536;2023-04-19T12:33:50;11.30;99.90
3816;DHT22;1923;48.154;11.536;2023-04-19T12:36:19;11.30;99.90
3816;DHT22;1923;48.154;11.536;2023-04-19T12:38:47;11.30;99.90
3816;DHT22;1923;48.154;11.536;2023-04-19T12:41:16;11.20;99.90
3816;DHT22;1923;48.154;11.536;2023-04-19T12:43:45;11.00;99.90
3816;DHT22;1923;48.154;11.536;2023-04-19T12:46:13;11.00;99.90
3816;DHT22;1923;48.154;11.536;2023-04-19T12:48:41;11.00;99.90
3816;DHT22;1923;48.154;11.536;2023-04-19T12:51:09;11.10;99.90
3816;DHT22;1923;48.154;11.536;2023-04-19T12:53:37;11.00;99.90
3816;DHT22;1923;48.154;11.536;2023-04-19T12:56:05;11.10;99.90
3816;DHT22;1923;48.154;11.536;2023-04-19T12:58:35;11.00;99.90
3816;DHT22;1923;48.154;11.536;2023-04-19T13:01:03;11.00;99.90
3816;DHT22;1923;48.154;11.536;2023-04-19T13:03:31;11.00;99.90
3816;DHT22;1923;48.154;11.536;2023-04-19T13:06:02;11.00;99.90
3816;DHT22;1923;48.154;11.536;2023-04-19T13:08:32;10.80;99.90
3816;DHT22;1923;48.154;11.536;2023-04-19T13:11:13;10.70;99.90
3816;DHT22;1923;48.154;11.536;2023-04-19T13:13:42;10.60;99.90
3816;DHT22;1923;48.154;11.536;2023-04-19T13:16:10;10.50;99.90
3816;DHT22;1923;48.154;11.536;2023-04-19T13:18:39;10.40;99.90
3816;DHT22;1923;48.154;11.536;2023-04-19T13:21:07;10.40;99.90
3816;DHT22;1923;48.154;11.536;2023-04-19T13:23:35;10.40;99.90
3816;DHT22;1923;48.154;11.536;2023-04-19T13:26:03;10.40;99.90
3816;DHT22;1923;48.154;11.536;2023-04-19T13:28:31;10.50;99.90
3816;DHT22;1923;48.154;11.536;2023-04-19T13:31:03;10.60;99.90
3816;DHT22;1923;48.154;11.536;2023-04-19T13:33:31;10.50;99.90
3816;DHT22;1923;48.154;11.536;2023-04-19T13:35:59;10.50;99.90
3816;DHT22;1923;48.154;11.536;2023-04-19T13:38:27;10.50;99.90
3816;DHT22;1923;48.154;11.536;2023-04-19T13:40:55;10.40;99.90
3816;DHT22;1923;48.154;11.536;2023-04-19T13:43:25;10.40;99.90
3816;DHT22;1923;48.154;11.536;2023-04-19T13:45:53;10.60;99.90
3816;DHT22;1923;48.154;11.536;2023-04-19T13:48:23;10.50;99.90
3816;DHT22;1923;48.154;11.536;2023-04-19T13:50:54;10.60;99.90
3816;DHT22;1923;48.154;11.536;2023-04-19T13:53:23;10.40;99.90
3816;DHT22;1923;48.154;11.536;2023-04-19T13:55:51;10.40;99.90
3816;DHT22;1923;48.154;11.536;2023-04-19T13:58:19;10.40;99.90
3816;DHT22;1923;48.154;11.536;2023-04-19T14:00:47;10.30;99.90
3816;DHT22;1923;48.154;11.536;2023-04-19T14:03:15;10.40;99.90
3816;DHT22;1923;48.154;11.536;2023-04-19T14:05:45;10.30;99.90
3816;DHT22;1923;48.154;11.536;2023-04-19T14:08:13;10.30;99.90
3816;DHT22;1923;48.154;11.536;2023-04-19T14:10:41;10.20;99.90
3816;DHT22;1923;48.154;11.536;2023-04-19T14:13:09;9.90;99.90
3816;DHT22;1923;48.154;11.536;2023-04-19T14:15:37;9.50;99.90
3816;DHT22;1923;48.154;11.536;2023-04-19T14:18:05;9.30;99.90
3816;DHT22;1923;48.154;11.536;2023-04-19T14:20:33;8.90;99.90
3816;DHT22;1923;48.154;11.536;2023-04-19T14:23:03;8.90;99.90
3816;DHT22;1923;48.154;11.536;2023-04-19T14:25:31;9.00;99.90
3816;DHT22;1923;48.154;11.536;2023-04-19T14:27:59;9.10;99.90
3816;DHT22;1923;48.154;11.536;2023-04-19T14:30:27;9.10;99.90
3816;DHT22;1923;48.154;11.536;2023-04-19T14:32:57;9.00;99.90
3816;DHT22;1923;48.154;11.536;2023-04-19T14:35:25;8.80;99.90
3816;DHT22;1923;48.154;11.536;2023-04-19T14:37:53;8.80;99.90
3816;DHT22;1923;48.154;11.536;2023-04-19T14:40:22;8.70;99.90
3816;DHT22;1923;48.154;11.536;2023-04-19T14:42:50;8.40;99.90
3816;DHT22;1923;48.154;11.536;2023-04-19T14:45:18;8.20;99.90
3816;DHT22;1923;48.154;11.536;2023-04-19T14:47:47;8.10;99.90
3816;DHT22;1923;48.154;11.536;2023-04-19T14:50:15;8.00;99.90
3816;DHT22;1923;48.154;11.536;2023-04-19T14:52:43;7.80;99.90
3816;DHT22;1923;48.154;11.536;2023-04-19T14:55:11;7.70;99.90
3816;DHT22;1923;48.154;11.536;2023-04-19T14:57:41;7.60;99.90
3816;DHT22;1923;48.154;11.536;2023-04-19T15:00:10;7.60;99.90
3816;DHT22;1923;48.154;11.536;2023-04-19T15:02:38;7.60;99.90
3816;DHT22;1923;48.154;11.536;2023-04-19T15:05:07;7.60;99.90
3816;DHT22;1923;48.154;11.536;2023-04-19T15:07:37;7.50;99.90
3816;DHT22;1923;48.154;11.536;2023-04-19T15:10:06;7.30;99.90
3816;DHT22;1923;48.154;11.536;2023-04-19T15:12:34;7.10;99.90
3816;DHT22;1923;48.154;11.536;2023-04-19T15:15:04;7.00;99.90
3816;DHT22;1923;48.154;11.536;2023-04-19T15:17:32;7.00;99.90
3816;DHT22;1923;48.154;11.536;2023-04-19T15:20:00;7.00;99.90
3816;DHT22;1923;48.154;11.536;2023-04-19T15:22:29;6.90;99.90
3816;DHT22;1923;48.154;11.536;2023-04-19T15:24:57;6.90;99.90
3816;DHT22;1923;48.154;11.536;2023-04-19T15:27:27;7.00;99.90
3816;DHT22;1923;48.154;11.536;2023-04-19T15:29:55;6.80;99.90
3816;DHT22;1923;48.154;11.536;2023-04-19T15:32:24;6.80;99.90
3816;DHT22;1923;48.154;11.536;2023-04-19T15:34:53;6.80;99.90
3816;DHT22;1923;48.154;11.536;2023-04-19T15:37:21;7.00;99.90
3816;DHT22;1923;48.154;11.536;2023-04-19T15:39:49;6.80;99.90
3816;DHT22;1923;48.154;11.536;2023-04-19T15:42:17;6.70;99.90
3816;DHT22;1923;48.154;11.536;2023-04-19T15:44:45;6.70;99.90
3816;DHT22;1923;48.154;11.536;2023-04-19T15:47:13;6.70;99.90
3816;DHT22;1923;48.154;11.536;2023-04-19T15:49:42;6.60;99.90
3816;DHT22;1923;48.154;11.536;2023-04-19T15:52:13;6.80;99.90
3816;DHT22;1923;48.154;11.536;2023-04-19T15:54:41;6.70;99.90
3816;DHT22;1923;48.154;11.536;2023-04-19T15:57:09;6.60;99.90
3816;DHT22;1923;48.154;11.536;2023-04-19T15:59:37;6.60;99.90
3816;DHT22;1923;48.154;11.536;2023-04-19T16:02:05;6.40;99.90
3816;DHT22;1923;48.154;11.536;2023-04-19T16:04:33;6.60;99.90
3816;DHT22;1923;48.154;11.536;2023-04-19T16:07:04;6.70;99.90
3816;DHT22;1923;48.154;11.536;2023-04-19T16:09:32;6.80;99.90
3816;DHT22;1923;48.154;11.536;2023-04-19T16:12:00;6.80;99.90
3816;DHT22;1923;48.154;11.536;2023-04-19T16:14:28;6.70;99.90